Home > Products > Valid Products > TAF

000
FTUS46 KPDT 270500
TAFDLS
TAF
KDLS 270531Z 2706/2806 06005KT P6SM OVC007
     FM271000 07004KT 5SM BR OVC006
     FM271400 VRB04KT 4SM BR OVC005
     FM271800 32006KT 5SM BR OVC010
     FM272100 32007KT P6SM SCT015 OVC050
     FM280300 31009KT P6SM SCT030 OVC050=



000
FTUS46 KPDT 270500
TAFRDM
TAF
KRDM 270531Z 2706/2806 16005KT P6SM SCT200
     FM271000 16004KT 6SM BR SCT005
     FM271600 VRB04KT P6SM FEW150 BKN200
     FM280000 31005KT P6SM BKN100 OVC150=



000
FTUS46 KPDT 270500
TAFPSC
TAF
KPSC 270531Z 2706/2806 36004KT 2SM BR OVC004
     FM270800 36003KT 1/2SM FG OVC002
     FM271900 29003KT 3SM BR BKN005
     FM280000 22005KT 5SM BR BKN015
     FM280300 24005KT P6SM SCT015 OVC040=



000
FTUS46 KPDT 270500
TAFALW
TAF
KALW 270531Z 2706/2806 VRB04KT 1/4SM FG VV002
     FM271900 20004KT 2SM BR OVC005
     FM280000 31003KT 1SM BR OVC003
     FM280300 VRB04KT 1/4SM FG VV002=



000
FTUS46 KPDT 270500
TAFYKM
TAF
KYKM 270531Z 2706/2806 27005KT 1/2SM FG VV002
     FM271000 26005KT 1/4SM FG VV002
     FM271800 VRB04KT 2SM BR OVC005
     FM272100 VRB04KT 5SM BR OVC009
     FM280300 28004KT 4SM BR SCT007 OVC015=



000
FTUS46 KPDT 270500
TAFPDT
TAF
KPDT 270531Z 2706/2806 29006KT 1/4SM FG VV002
     FM271900 31004KT 2SM BR BKN005 OVC010
     FM280300 31005KT 4SM BR BKN010 OVC050=



000
FTUS46 KPDT 270100 AAB
TAFYKM
TAF AMD
KYKM 270103Z 2701/2724 VRB04KT 1SM BR OVC002
      TEMPO 2701/2703 1/2SM FG OVC002
     FM270300 27005KT 1/2SM FG OVC001
     FM271000 26005KT 1/4SM FG VV001
     FM271800 VRB04KT 2SM BR OVC005
     FM272100 VRB04KT 5SM BR OVC009=



000
FTUS46 KPDT 270100 AAA
TAFPDT
TAF AMD
KPDT 270103Z 2701/2724 29006KT 1/4SM FG VV002
     FM271900 31004KT 2SM BR BKN005 OVC010=



000
FTUS46 KPDT 270000 AAA
TAFALW
TAF AMD
KALW 270035Z 2701/2724 VRB04KT 1/4SM FG VV002
      TEMPO 2701/2704 1/2SM FG OVC002
     FM270600 VRB04KT 1/4SM FG VV002
     FM271800 20004KT 3SM BR OVC005=



000
FTUS46 KPDT 270000 AAA
TAFYKM
TAF AMD
KYKM 270004Z 2700/2724 VRB04KT 1SM BR OVC002
      TEMPO 2700/2703 1/2SM FG OVC001
     FM270300 27005KT 1/2SM FG OVC001
     FM271000 26005KT 1/4SM FG VV001
     FM271800 VRB04KT 2SM BR OVC005
     FM272100 VRB04KT 5SM BR OVC009=



000
FTUS46 KPDT 262300
TAFPSC
TAF
KPSC 262331Z 2700/2724 VRB04KT 3SM BR OVC004
     FM270300 36004KT 1SM BR OVC004
     FM270800 36003KT 1/2SM FG OVC002
     FM271900 29003KT 3SM BR BKN005=



000
FTUS46 KPDT 262300
TAFPDT
TAF
KPDT 262331Z 2700/2724 29006KT 1/4SM FG VV002
      TEMPO 2700/2703 3/4SM BR BKN005
     FM271900 31004KT 2SM BR BKN005 OVC010=



000
FTUS46 KPDT 262300
TAFDLS
TAF
KDLS 262331Z 2700/2724 VRB05KT P6SM OVC010
     FM270500 07005KT 5SM BR OVC007
     FM271000 07004KT 2SM BR OVC005
     FM271400 VRB04KT 1/2SM FG OVC002
     FM271800 32006KT 3SM BR OVC010
     FM272100 32007KT 6SM BR BKN015=



000
FTUS46 KPDT 262300
TAFRDM
TAF
KRDM 262331Z 2700/2724 16005KT P6SM SCT200
     FM271000 16004KT 6SM BR SCT005
     FM271600 VRB04KT P6SM FEW150 BKN200=



000
FTUS46 KPDT 262300
TAFALW
TAF
KALW 262331Z 2700/2724 VRB04KT 1/2SM FG OVC002
      TEMPO 2700/2703 1SM BR OVC004
     FM270600 VRB04KT 1/4SM FG VV002
     FM271800 20004KT 3SM BR OVC005=



000
FTUS46 KPDT 262300
TAFYKM
TAF
KYKM 262331Z 2700/2724 VRB04KT 1SM BR OVC002
     FM270300 27005KT 1/2SM FG OVC002
     FM271000 26005KT 1/4SM FG VV001
     FM271800 VRB04KT 2SM BR OVC005
     FM272100 VRB04KT 5SM BR OVC009=



000
FTUS46 KPDT 262200 AAA
TAFPSC
TAF AMD
KPSC 262206Z 2622/2718 VRB04KT 3SM BR OVC005
     FM270000 32004KT 5SM BR OVC011
     FM270200 36004KT 3SM BR OVC007
     FM271200 36003KT 1SM BR OVC003=



000
FTUS46 KPDT 262200 AAC
TAFYKM
TAF AMD
KYKM 262204Z 2622/2718 VRB04KT 3/4SM BR OVC002
      TEMPO 2622/2624 1/2SM FG VV002
     FM270500 27005KT 1/2SM FG OVC002=



000
FTUS46 KPDT 262200 AAC
TAFDLS
TAF AMD
KDLS 262202Z 2622/2718 VRB05KT P6SM OVC010
     FM270500 07005KT 6SM BR OVC007
     FM271000 07004KT 3SM BR OVC004=



000
FTUS46 KPDT 262000 AAA
TAFPDT
TAF AMD
KPDT 262056Z 2621/2718 30008KT 1/4SM FG VV002
     FM270000 26006KT 3SM BR OVC007
     FM270400 16004KT 1/2SM FG OVC002=



000
FTUS46 KPDT 262000 AAB
TAFDLS
TAF AMD
KDLS 262004Z 2620/2718 07005KT P6SM SCT007 OVC012
      TEMPO 2620/2622 OVC010
     FM270500 07005KT 6SM BR OVC007
     FM271000 07004KT 3SM BR OVC004=



000
FTUS46 KPDT 261900 AAB
TAFYKM
TAF AMD
KYKM 261927Z 2619/2718 27004KT 3/4SM BR OVC002
      TEMPO 2619/2621 1/2SM FG VV002
     FM262100 VRB04KT 2SM BR OVC007
     FM270500 27005KT 1/2SM FG OVC002=



000
FTUS46 KPDT 261900 AAB
TAFALW
TAF AMD
KALW 261904Z 2619/2718 VRB04KT 3/4SM BR OVC002
      TEMPO 2619/2621 1/4SM FG VV002
     FM262100 VRB04KT 1SM BR OVC005
     FM270200 VRB04KT 1/2SM FG OVC002
     FM270600 VRB04KT 1/4SM FG VV002=



000
FTUS46 KPDT 261800 AAA
TAFDLS
TAF AMD
KDLS 261842Z 2619/2718 07006KT 5SM BR OVC008
     FM261900 07005KT P6SM SCT007 OVC012
     FM270500 07005KT 6SM BR OVC007
     FM271000 07004KT 3SM BR OVC004=



000
FTUS46 KPDT 261800 AAA
TAFALW
TAF AMD
KALW 261827Z 2618/2718 VRB04KT 1/4SM FG VV002
      TEMPO 2618/2621 1SM BR OVC003
     FM262100 VRB04KT 1SM BR OVC005
     FM270200 VRB04KT 1/2SM FG OVC002
     FM270600 VRB04KT 1/4SM FG VV002=



000
FTUS46 KPDT 261800 AAA
TAFYKM
TAF AMD
KYKM 261801Z 2618/2718 27004KT 1/2SM FG OVC002
      TEMPO 2618/2620 1/4SM FG VV002
     FM262100 VRB04KT 2SM BR OVC007
     FM270500 27005KT 1/2SM FG OVC002=



000
FTUS46 KPDT 261700
TAFALW
TAF
KALW 261720Z 2618/2718 VRB04KT 1/4SM FG VV002
     FM262100 VRB04KT 1SM BR OVC005
     FM270200 VRB04KT 1/2SM FG OVC002
     FM270600 VRB04KT 1/4SM FG VV002=



000
FTUS46 KPDT 261700
TAFPDT
TAF
KPDT 261720Z 2618/2718 30008KT 1/4SM FG VV002
     FM262100 30005KT 2SM BR OVC007
     FM270000 26006KT 5SM BR OVC009
     FM270400 16004KT 1/2SM FG OVC002=



000
FTUS46 KPDT 261700
TAFYKM
TAF
KYKM 261720Z 2618/2718 27004KT 1/2SM FG OVC002
     FM262100 VRB04KT 2SM BR OVC007
     FM270500 27005KT 1/2SM FG OVC002=



000
FTUS46 KPDT 261700
TAFDLS
TAF
KDLS 261720Z 2618/2718 07006KT 5SM BR OVC008
     FM262000 07007KT P6SM OVC012
     FM270500 07005KT 6SM BR OVC007
     FM271000 07004KT 3SM BR OVC004=



000
FTUS46 KPDT 261700
TAFPSC
TAF
KPSC 261720Z 2618/2718 35004KT 3SM BR OVC005
     FM262000 36004KT 5SM BR OVC007
     FM262300 32004KT 6SM BR OVC015
     FM270200 36004KT 3SM BR OVC007
     FM271200 36003KT 1SM BR OVC003=



000
FTUS46 KPDT 261700
TAFRDM
TAF
KRDM 261720Z 2618/2718 16005KT P6SM SKC
     FM262300 29007KT P6SM SKC
     FM270300 16005KT P6SM SKC
     FM271000 16004KT 6SM BR SCT010
     FM271600 VRB04KT P6SM SCT200=



000
FTUS46 KPDT 261600 AAA
TAFPSC
TAF AMD
KPSC 261646Z 2617/2712 35004KT 3SM BR OVC005
     FM262000 36004KT 5SM BR OVC007
     FM270400 36004KT 3SM BR OVC004=



000
FTUS46 KPDT 261100
TAFYKM
TAF
KYKM 261132Z 2612/2712 27004KT 1/4SM FG OVC002
     FM261800 VRB04KT 1SM BR OVC003
     FM262100 VRB04KT 3SM BR OVC005
     FM270300 27003KT 1/2SM FG OVC002=



000
FTUS46 KPDT 261100
TAFRDM
TAF
KRDM 261132Z 2612/2712 16005KT P6SM SKC=



000
FTUS46 KPDT 261100
TAFDLS
TAF
KDLS 261132Z 2612/2712 08007KT 6SM BR OVC007
     FM261800 07006KT P6SM OVC010
     FM270500 07005KT 6SM BR OVC007=



000
FTUS46 KPDT 261100
TAFPSC
TAF
KPSC 261132Z 2612/2712 32004KT 1/2SM FG OVC002
     FM261700 35004KT 2SM BR OVC004
     FM262000 36004KT 5SM BR OVC007
     FM270400 36004KT 3SM BR OVC004=



000
FTUS46 KPDT 261100
TAFALW
TAF
KALW 261132Z 2612/2712 VRB04KT 1/4SM FG OVC002
     FM261800 VRB04KT 1SM BR OVC004
     FM262100 VRB04KT 3SM BR OVC006
     FM270400 VRB04KT 1/2SM FG OVC002=



000
FTUS46 KPDT 261100
TAFPDT
TAF
KPDT 261132Z 2612/2712 32005KT 1/4SM FG OVC001
     FM261800 VRB05KT 1SM BR OVC003
     FM262100 VRB05KT 3SM BR OVC006
     FM270400 VRB04KT 1/2SM FG OVC002=



000
FTUS46 KPDT 260600 AAC
TAFYKM
TAF AMD
KYKM 260642Z 2607/2706 VRB04KT 1/4SM FG VV002
     FM261200 27004KT 1/4SM FG VV001
     FM261700 VRB03KT 3SM BR BKN004
     FM262100 VRB03KT 6SM BR SCT005
     FM270300 VRB03KT 2SM BR OVC003=



000
FTUS46 KPDT 260500 AAB
TAFYKM
TAF AMD
KYKM 260555Z 2606/2706 VRB04KT 1/2SM FG VV002
     FM261200 27004KT 1/4SM FG VV001
     FM261700 VRB03KT 3SM BR BKN004
     FM262100 VRB03KT 6SM BR SCT005
     FM270300 VRB03KT 2SM BR OVC003=



000
FTUS46 KPDT 260500 AAA
TAFYKM
TAF AMD
KYKM 260523Z 2605/2706 VRB04KT 1/4SM FG VV002
     FM261200 27004KT 1/4SM FG VV001
     FM261700 VRB03KT 3SM BR BKN004
     FM262100 VRB03KT 6SM BR SCT005
     FM270300 VRB03KT 2SM BR OVC003=



000
FTUS46 KPDT 260500 AAA
TAFPDT
TAF AMD
KPDT 260521Z 2605/2706 33007KT 1/4SM FG VV001
     FM261600 VRB05KT 5SM BR SCT250
     FM262100 VRB04KT P6SM SCT250=



000
FTUS46 KPDT 260500
TAFPDT
TAF
KPDT 260520Z 2606/2706 33007KT 2SM BR SCT250
     FM261200 14005KT 1/2SM FG BKN003 OVC250
     FM261600 VRB05KT 5SM BR SCT250
     FM262100 VRB04KT P6SM SCT250=



000
FTUS46 KPDT 260500
TAFALW
TAF
KALW 260520Z 2606/2706 VRB03KT 1/4SM FG VV002
     FM261200 VRB03KT 1/4SM FG VV001
     FM261800 17005KT 3SM BR OVC004
     FM270100 VRB04KT P6SM FEW007 SCT250=



000
FTUS46 KPDT 260500
TAFRDM
TAF
KRDM 260520Z 2606/2706 15007KT P6SM SCT200
     FM261200 16006KT P6SM SCT200
     FM262100 VRB05KT P6SM FEW200=



000
FTUS46 KPDT 260500
TAFDLS
TAF
KDLS 260520Z 2606/2706 08006KT 6SM BR OVC005
     FM261000 09003KT 1/4SM FG OVC002
     FM261700 VRB03KT 2SM BR OVC003
     FM262100 VRB03KT 5SM BR OVC005
     FM270300 VRB03KT P6SM FEW008 SCT250=



000
FTUS46 KPDT 260500
TAFYKM
TAF
KYKM 260520Z 2606/2706 VRB04KT 1/4SM FG VV002
     FM261200 27004KT 1/4SM FG OVC001
     FM261700 VRB03KT 3SM BR BKN004
     FM262100 VRB03KT 6SM BR SCT005
     FM270300 VRB03KT 2SM BR OVC003=



000
FTUS46 KPDT 260500
TAFPSC
TAF
KPSC 260520Z 2606/2706 33005KT 4SM BR OVC005
     FM261000 33004KT 1/4SM FZFG OVC001
     FM261700 VRB04KT 4SM BR OVC004
     FM262200 VRB03KT P6SM OVC007=



000
FTUS46 KPDT 260300 AAA
TAFPDT
TAF AMD
KPDT 260311Z 2603/2624 31005KT 5SM BR SCT150
     FM260800 09005KT P6SM SCT180
     FM261500 VRB05KT P6SM SKC=



000
FTUS46 KPDT 260200 AAE
TAFYKM
TAF AMD
KYKM 260223Z 2602/2624 VRB04KT 1/4SM FG VV002
     FM260900 27004KT 1/4SM FG OVC001
     FM261900 VRB03KT 3SM BR BKN004
     FM262100 VRB03KT 6SM BR SCT005=



000
FTUS46 KPDT 260100 AAD
TAFYKM
TAF AMD
KYKM 260129Z 2601/2624 VRB04KT 3/4SM BR OVC002
     FM260900 27004KT 1/4SM FG OVC001
     FM261900 VRB03KT 3SM BR BKN004
     FM262100 VRB03KT 6SM BR SCT005=



000
FTUS46 KPDT 260100 AAB
TAFPSC
TAF AMD
KPSC 260120Z 2601/2624 28005KT 3SM BR OVC006
     FM260900 36004KT 1/4SM FZFG OVC002
     FM261800 VRB04KT 2SM BR OVC004=



000
FTUS46 KPDT 260100 AAB
TAFDLS
TAF AMD
KDLS 260101Z 2601/2624 VRB03KT 1/2SM FG OVC002
     FM260700 09003KT 2SM BR OVC003
     FM260900 09003KT 1/4SM FG OVC002
     FM261700 VRB03KT 2SM BR OVC003
     FM261900 VRB03KT P6SM OVC005=



000
FTUS46 KPDT 260000 AAB
TAFALW
TAF AMD
KALW 260059Z 2601/2624 20004KT 1/4SM FG VV001
     FM260900 16005KT 1/4SM FG OVC001
     FM262000 17004KT 2SM BR OVC004=



000
FTUS46 KPDT 260000 AAA
TAFPSC
TAF AMD
KPSC 260059Z 2601/2624 28005KT 1SM BR OVC005
     FM260900 36004KT 1/4SM FZFG OVC002
     FM261800 VRB04KT 2SM BR OVC004=



000
FTUS46 KPDT 260000 AAA
TAFALW
TAF AMD
KALW 260057Z 2601/2624 20004KT 1/4SM FG OVC002
     FM260900 16005KT 1/4SM FG OVC001
     FM262000 17004KT 2SM BR OVC004=



000
FTUS46 KPDT 260000 AAC
TAFYKM
TAF AMD
KYKM 260056Z 2601/2624 VRB04KT 1/4SM FG OVC002
     FM260900 27004KT 1/4SM FG OVC001
     FM261900 VRB03KT 3SM BR BKN004
     FM262100 VRB03KT 6SM BR SCT005=



000
FTUS46 KPDT 260000 AAB
TAFYKM
TAF AMD
KYKM 260006Z 2600/2624 07008KT 1SM BR OVC002
     FM260700 27004KT 1/4SM FG OVC001
     FM261900 VRB03KT 3SM BR BKN004
     FM262100 VRB03KT 6SM BR SCT005=



000
FTUS46 KPDT 260000 AAA
TAFDLS
TAF AMD
KDLS 260004Z 2600/2624 VRB03KT 2SM BR OVC002
     FM260700 09003KT 2SM BR OVC003
     FM260900 09003KT 1/4SM FG OVC002
     FM261700 VRB03KT 2SM BR OVC003
     FM261900 VRB03KT P6SM OVC005=



000
FTUS46 KPDT 252300 AAA
TAFYKM
TAF AMD
KYKM 252347Z 2600/2624 07008KT 3SM BR OVC003
     FM260700 27004KT 1/4SM FG OVC001
     FM261900 VRB03KT 3SM BR BKN004
     FM262100 VRB03KT 6SM BR SCT005=



000
FTUS46 KPDT 252300
TAFPSC
TAF
KPSC 252320Z 2600/2624 28005KT 2SM BR OVC004
     FM260600 36004KT 1/4SM FZFG OVC002
     FM261800 VRB04KT 2SM BR OVC004=



000
FTUS46 KPDT 252300
TAFYKM
TAF
KYKM 252320Z 2600/2624 06008KT 4SM BR BKN003
     FM260400 29005KT 3SM BR OVC003
     FM260700 27004KT 1/4SM FG OVC001
     FM261900 VRB03KT 3SM BR BKN004
     FM262100 VRB03KT 6SM BR SCT005=



000
FTUS46 KPDT 252300
TAFALW
TAF
KALW 252320Z 2600/2624 20004KT 1/4SM FG OVC002
      TEMPO 2600/2603 2SM BR OVC004
     FM260300 16005KT 1/4SM FG OVC001
     FM262000 17004KT 2SM BR OVC004=



000
FTUS46 KPDT 252300
TAFRDM
TAF
KRDM 252320Z 2600/2624 14007KT P6SM SCT180
     FM261200 16006KT P6SM SKC=



000
FTUS46 KPDT 252300
TAFDLS
TAF
KDLS 252320Z 2600/2624 VRB03KT P6SM OVC005
     FM260600 09003KT 2SM BR OVC003
     FM260900 09003KT 1/4SM FG OVC002
     FM261700 VRB03KT 2SM BR OVC003
     FM261900 VRB03KT P6SM OVC005=



000
FTUS46 KPDT 252300
TAFPDT
TAF
KPDT 252320Z 2600/2624 31009KT P6SM SCT180
     FM260200 09005KT P6SM SCT180
     FM261500 VRB05KT P6SM SKC=



000
FTUS46 KPDT 252200 AAA
TAFYKM
TAF AMD
KYKM 252240Z 2523/2618 06008KT P6SM SCT005
     FM260300 29005KT 3SM BR BKN004
     FM260600 27004KT 1/4SM FG OVC001=



000
FTUS46 KPDT 252100 AAB
TAFALW
TAF AMD
KALW 252127Z 2521/2618 20004KT 2SM BR OVC003
     FM260600 18005KT 1/4SM FG OVC001=



000
FTUS46 KPDT 252000 AAA
TAFALW
TAF AMD
KALW 252002Z 2520/2618 20004KT 1/4SM FG OVC002=



000
FTUS46 KPDT 251900 AAA
TAFPSC
TAF AMD
KPSC 251913Z 2519/2618 36004KT 5SM BR OVC005
     FM260900 36004KT 1/4SM FZFG OVC002=



000
FTUS46 KPDT 251800 AAB
TAFDLS
TAF AMD
KDLS 251859Z 2519/2618 32004KT 6SM BR OVC004
     FM260900 09003KT 1/4SM FG OVC002=



000
FTUS46 KPDT 251800 AAA
TAFDLS
TAF AMD
KDLS 251807Z 2518/2618 32004KT 4SM BR OVC004
     FM260900 09003KT 1/4SM FG OVC002=



000
FTUS46 KPDT 251700
TAFDLS
TAF
KDLS 251720Z 2518/2618 VRB03KT 1/4SM FG OVC003
     FM252000 08004KT 3SM BR OVC004
     FM260900 09003KT 1/4SM FG OVC002=



000
FTUS46 KPDT 251700
TAFPSC
TAF
KPSC 251720Z 2518/2618 VRB03KT 1/4SM FG OVC002
     FM252000 36004KT 4SM BR OVC007
     FM260900 36004KT 1/4SM FZFG OVC002=



000
FTUS46 KPDT 251700
TAFYKM
TAF
KYKM 251720Z 2518/2618 28003KT 1/4SM FG OVC001
     FM252000 VRB03KT 2SM BR OVC003
     FM260600 27004KT 1/4SM FG OVC001=



000
FTUS46 KPDT 251700
TAFPDT
TAF
KPDT 251720Z 2518/2618 08005KT P6SM BKN150
     FM261500 VRB05KT P6SM SKC=



000
FTUS46 KPDT 251700
TAFALW
TAF
KALW 251720Z 2518/2618 20004KT 1/4SM FG OVC001
     FM252000 18006KT 2SM BR OVC003
     FM260600 15005KT 1/4SM FG OVC001=



000
FTUS46 KPDT 251700
TAFRDM
TAF
KRDM 251720Z 2518/2618 16011KT P6SM BKN180
     FM261200 16006KT P6SM SKC=



000
FTUS46 KPDT 251600 AAB
TAFPSC
TAF AMD
KPSC 251602Z 2516/2612 00000KT 4SM BR OVC007
     FM251700 VRB03KT 6SM BR SCT012 BKN200
     FM251900 VRB04KT P6SM FEW015 SCT200=



000
FTUS46 KPDT 251500 AAA
TAFPSC
TAF AMD
KPSC 251520Z 2515/2612 00000KT 6SM BR OVC010
     FM251700 VRB03KT 6SM BR SCT012 BKN200
     FM251900 VRB04KT P6SM FEW015 SCT200=



000
FTUS46 KPDT 251500 AAB
TAFALW
TAF AMD
KALW 251501Z 2515/2612 19007KT 1SM BR OVC001
      TEMPO 2515/2517 1/4SM FG VV001
     FM251700 19004KT 1SM BR OVC003
      TEMPO 2518/2519 4SM BR SCT004 BKN150
     FM251900 20006KT P6SM SCT006 SCT150 BKN200
     FM252100 14005KT P6SM SCT200 BKN250=



000
FTUS46 KPDT 251400 AAB
TAFYKM
TAF AMD
KYKM 251451Z 2515/2612 00000KT 1/4SM FG VV002
      TEMPO 2515/2517 1/2SM FG OVC002
     FM251700 00000KT 1SM BR OVC002
      TEMPO 2517/2518 2SM BR OVC003
     FM251800 00000KT 2SM BR OVC003
      TEMPO 2519/2520 VRB03KT 4SM BR BKN004
     FM252000 VRB03KT P6SM SCT004 SCT150 SCT250=



000
FTUS46 KPDT 251100 AAA
TAFALW
TAF AMD
KALW 251147Z 2512/2612 16005KT P6SM BKN150 OVC200
      TEMPO 2512/2516 4SM BR BKN150
     FM251800 VRB04KT P6SM SCT150 BKN200
     FM252100 20005KT P6SM SCT200 BKN250=



000
FTUS46 KPDT 251100 RRA
TAFPSC
TAF
KPSC 251141Z 2512/2612 VRB05KT P6SM FEW020 BKN080
     FM251500 VRB04KT 5SM BR FEW025 BKN150
     FM252200 VRB04KT P6SM FEW040 SCT250=



000
FTUS46 KPDT 251100 RRA
TAFRDM
TAF
KRDM 251141Z 2512/2612 12006KT P6SM SCT130 SCT200
     FM252100 16006KT P6SM FEW090 SCT200=



000
FTUS46 KPDT 251100 RRA
TAFPDT
TAF
KPDT 251141Z 2512/2612 16005KT P6SM OVC150
     FM252100 07006KT P6SM SCT250=



000
FTUS46 KPDT 251100 RRA
TAFDLS
TAF
KDLS 251141Z 2512/2612 00000KT 1/4SM FG OVC002
     FM252000 08004KT P6SM SCT012 SCT250=



000
FTUS46 KPDT 251100 RRA
TAFYKM
TAF
KYKM 251141Z 2512/2612 00000KT 1SM BR OVC002
      TEMPO 2512/2515 1/4SM FG VV002
     FM251500 36005KT 3SM BR SCT004
      TEMPO 2515/2519 VRB03KT 2SM BR BKN004
     FM252000 VRB03KT P6SM SCT150 SCT250=



000
FTUS46 KPDT 251100 RRA
TAFALW
TAF
KALW 251141Z 2512/2612 09004KT 2SM BR SCT009 BKN150
     FM251300 VRB04KT 1SM BR SCT007 BKN200
     FM252100 20005KT 5SM BR FEW012 SCT250=



000
FTUS46 KPDT 251100 AAA
TAFYKM
TAF AMD
KYKM 251123Z 2511/2606 00000KT 1SM BR OVC002
      TEMPO 2511/2515 1/4SM FG VV002
     FM251500 36005KT 3SM BR SCT004
      TEMPO 2515/2519 VRB03KT 2SM BR BKN004
     FM252000 VRB03KT P6SM SCT150 SCT250=



000
FTUS46 KPDT 250800 AAD
TAFALW
TAF AMD
KALW 250859Z 2509/2606 06005KT 3SM BR FEW009 OVC150
      TEMPO 2509/2511 2SM BR SCT009 OVC150
     FM251100 09004KT 2SM BR SCT009 BKN150
     FM251300 VRB04KT 1SM BR SCT007 BKN200
     FM252100 20005KT 5SM BR FEW012 SCT250=



000
FTUS46 KPDT 250800 AAE
TAFDLS
TAF AMD
KDLS 250828Z 2508/2606 32004KT P6SM SCT007 OVC200
      TEMPO 2508/2512 BKN007 OVC200
     FM251200 09003KT 1SM BR BKN008 OVC200
     FM252000 08004KT P6SM FEW012 SCT250=



000
FTUS46 KPDT 250800 AAC
TAFALW
TAF AMD
KALW 250800Z 2508/2606 15004KT 3SM BR OVC150
     FM251000 VRB03KT 2SM BR SCT009 BKN150
     FM251200 VRB04KT 1SM BR SCT007 BKN200
     FM252100 20005KT 5SM BR FEW012 SCT250=



000
FTUS46 KPDT 250600 AAD
TAFDLS
TAF AMD
KDLS 250650Z 2507/2606 32004KT 1SM BR FEW002
     FM251200 09003KT 1SM BR BKN008
     FM252000 08004KT P6SM FEW012 SCT250=



000
FTUS46 KPDT 250600 AAC
TAFDLS
TAF AMD
KDLS 250641Z 2507/2606 32004KT 1/2SM FG VV002
     FM251200 09003KT 1SM BR BKN008
     FM252000 08004KT P6SM FEW012 SCT250=



000
FTUS46 KPDT 250600 AAB
TAFALW
TAF AMD
KALW 250640Z 2507/2606 18009KT 2SM BR SCT100
     FM250900 VRB03KT 2SM BR SCT009 BKN150
     FM251200 VRB04KT 1SM BR SCT007 BKN200
     FM252100 20005KT 5SM BR FEW012 SCT250=



000
FTUS46 KPDT 250500 AAA
TAFALW
TAF AMD
KALW 250531Z 2506/2606 18009KT 3SM BR SCT100
     FM250900 VRB03KT 2SM BR SCT009 BKN150
     FM251200 VRB04KT 1SM BR SCT007 BKN200
     FM252100 20005KT 5SM BR FEW012 SCT250=



000
FTUS46 KPDT 250500 AAB
TAFDLS
TAF AMD
KDLS 250531Z 2506/2606 32004KT 1/2SM FG FEW080
     FM251200 09003KT 1SM BR BKN008
     FM252000 08004KT P6SM FEW012 SCT250=



000
FTUS46 KPDT 250500 AAA
TAFDLS
TAF AMD
KDLS 250529Z 2505/2606 32004KT 1 1/2SM BR FEW080
     FM251200 09003KT 1SM BR BKN008
     FM252000 08004KT P6SM FEW012 SCT250=



000
FTUS46 KPDT 250500
TAFALW
TAF
KALW 250520Z 2506/2606 18009KT P6SM FEW045 SCT100
     FM250900 VRB03KT 2SM BR SCT009 BKN150
     FM251200 VRB04KT 1SM BR SCT007 BKN200
     FM252100 20005KT 5SM BR FEW012 SCT250=



000
FTUS46 KPDT 250500
TAFPSC
TAF
KPSC 250520Z 2506/2606 VRB05KT P6SM FEW020 BKN080
     FM251500 VRB04KT 5SM BR FEW025 BKN150
     FM252200 VRB04KT P6SM FEW040 SCT250=



000
FTUS46 KPDT 250500
TAFYKM
TAF
KYKM 250520Z 2506/2606 VRB04KT 4SM BR FEW080 BKN150
     FM251000 VRB04KT 4SM BR SCT007 BKN200
     FM252000 VRB03KT P6SM SCT150 SCT250=



000
FTUS46 KPDT 250500
TAFRDM
TAF
KRDM 250520Z 2506/2606 14008KT P6SM FEW060
     FM251200 15005KT P6SM SCT200
     FM252100 16006KT P6SM FEW090 SCT200=



000
FTUS46 KPDT 250500
TAFDLS
TAF
KDLS 250520Z 2506/2606 32004KT 6SM BR FEW080
     FM251200 09003KT 1SM BR BKN008
     FM252000 08004KT P6SM FEW012 SCT250=



000
FTUS46 KPDT 250500
TAFPDT
TAF
KPDT 250520Z 2506/2606 VRB05KT P6SM FEW045 SCT150
     FM250900 14005KT P6SM BKN150
     FM251200 13005KT P6SM SCT200
     FM252100 07006KT P6SM SCT250=



000
FTUS46 KPDT 250400 AAA
TAFDLS
TAF AMD
KDLS 250438Z 2505/2524 32004KT 2SM BR FEW080
     FM251200 09003KT 5SM BR SCT015 SCT200
     FM251800 09003KT P6SM SCT180=



000
FTUS46 KPDT 250300 AAA
TAFYKM
TAF AMD
KYKM 250301Z 2503/2524 VRB03KT 4SM BR FEW080
     FM250800 28004KT 4SM BR SCT007 BKN180
     FM251800 VRB03KT P6SM SCT180=



000
FTUS46 KPDT 250000 AAA
TAFPSC
TAF AMD
KPSC 250001Z 2500/2524 36006KT P6SM SCT015 BKN080
     FM250600 36003KT P6SM OVC010
     FM252000 36004KT P6SM SCT010 SCT180=



000
FTUS46 KPDT 242300
TAFDLS
TAF
KDLS 242320Z 2500/2524 32004KT P6SM SKC
     FM250400 09003KT 6SM BR SCT015 SCT180
     FM251800 09003KT P6SM SCT180=



000
FTUS46 KPDT 242300
TAFPDT
TAF
KPDT 242320Z 2500/2524 32005KT P6SM SCT150
     FM250300 14005KT P6SM BKN150
     FM251200 13006KT P6SM SCT150
     FM252100 07007KT P6SM SCT180=



000
FTUS46 KPDT 242300
TAFYKM
TAF
KYKM 242320Z 2500/2524 VRB04KT P6SM SCT080
     FM250800 28004KT 4SM BR SCT007 BKN180
     FM251800 VRB03KT P6SM SCT180=



000
FTUS46 KPDT 242300
TAFPSC
TAF
KPSC 242320Z 2500/2524 36006KT P6SM OVC015
     FM250600 36003KT P6SM OVC010
     FM252000 36004KT P6SM SCT010 SCT180=



000
FTUS46 KPDT 242300
TAFRDM
TAF
KRDM 242320Z 2500/2524 16007KT P6SM BKN150
     FM250600 14004KT P6SM SCT180
     FM251800 17007KT P6SM FEW180=



000
FTUS46 KPDT 242300
TAFALW
TAF
KALW 242320Z 2500/2524 32007KT 4SM BR OVC045
     FM250900 16006KT 2SM BR FEW030 BKN150
     FM252000 VRB04KT 6SM BR SCT180=



000
FTUS46 KPDT 242100 AAA
TAFALW
TAF AMD
KALW 242118Z 2421/2518 20010KT 5SM BR BKN040 OVC070
     FM250200 16006KT 5SM BR SCT070 BKN150=



000
FTUS46 KPDT 242100 AAA
TAFALW
TAF AMD
KALW 242118Z 2421/2518 20010KT 5SM BR BKN040 OVC070
     FM250200 16006KT 5SM BR SCT070 BKN150=



000
FTUS46 KPDT 241900 AAA
TAFYKM
TAF AMD
KYKM 241908Z 2419/2518 30004KT P6SM SCT070
     FM250200 28004KT 4SM BR SCT007 BKN150=



000
FTUS46 KPDT 241700
TAFPDT
TAF
KPDT 241720Z 2418/2518 09007KT P6SM OVC100
     FM242200 14006KT P6SM BKN100
     FM250300 14006KT P6SM BKN150=



000
FTUS46 KPDT 241700
TAFYKM
TAF
KYKM 241720Z 2418/2518 30004KT 4SM BR BKN070
     FM250200 28004KT 4SM BR SCT007 BKN150=



000
FTUS46 KPDT 241700
TAFALW
TAF
KALW 241720Z 2418/2518 20010KT P6SM SCT030 OVC070
     FM250200 16006KT P6SM SCT070 BKN150=



000
FTUS46 KPDT 241700
TAFPSC
TAF
KPSC 241720Z 2418/2518 30005KT P6SM SCT008 OVC015
     FM242100 28005KT P6SM BKN015 BKN080 OVC180
     FM250100 35005KT P6SM SCT080 BKN180
     FM250600 36004KT P6SM SCT008 BKN150=



000
FTUS46 KPDT 241700
TAFRDM
TAF
KRDM 241720Z 2418/2518 VRB04KT P6SM FEW150
     FM250200 14003KT P6SM SCT150=



000
FTUS46 KPDT 241700
TAFDLS
TAF
KDLS 241720Z 2418/2518 VRB03KT P6SM BKN100
     FM242100 32005KT P6SM BKN120
     FM250300 09003KT 6SM BR SCT015 SCT150=



000
FTUS46 KPDT 241500 AAA
TAFYKM
TAF AMD
KYKM 241559Z 2416/2512 27004KT 4SM BR SCT070
     FM241900 VRB03KT P6SM SCT050 OVC070
     FM250300 26003KT P6SM BKN080 BKN120=



000
FTUS46 KPDT 241100
TAFYKM
TAF
KYKM 241140Z 2412/2512 27004KT 5SM BR OVC006
     FM241900 VRB03KT P6SM SCT050 OVC070
     FM250300 26003KT P6SM BKN080 BKN120=



000
FTUS46 KPDT 241100
TAFALW
TAF
KALW 241140Z 2412/2512 VRB04KT P6SM SCT070 OVC090
     FM241500 VRB04KT 6SM BR VCSH BKN050 OVC070
     FM241900 24008KT P6SM SCT050 BKN090
     FM242100 20008KT P6SM SCT080 BKN100
     FM250300 16006KT P6SM SCT090 BKN120=



000
FTUS46 KPDT 241100
TAFPDT
TAF
KPDT 241140Z 2412/2512 15008KT P6SM BKN100 OVC200
     FM241500 VRB04KT 6SM BR VCSH BKN050 OVC070
     FM241800 24008KT P6SM SCT050 BKN100
     FM250300 15006KT P6SM SCT060 BKN120=



000
FTUS46 KPDT 241100
TAFPSC
TAF
KPSC 241140Z 2412/2512 VRB05KT P6SM SCT050 BKN130
     FM241800 22005KT P6SM SCT050 BKN120
     FM250300 32005KT P6SM SCT080 BKN150=



000
FTUS46 KPDT 241100
TAFRDM
TAF
KRDM 241140Z 2412/2512 10004KT P6SM SCT080 BKN100
     FM241800 VRB06KT P6SM BKN120
     FM250100 VRB03KT P6SM BKN150=



000
FTUS46 KPDT 241100
TAFDLS
TAF
KDLS 241140Z 2412/2512 00000KT P6SM BKN050 OVC070
      TEMPO 2412/2415 5SM BR SCT018 BKN035 BKN050
     FM241500 VRB03KT P6SM SCT018 BKN040 OVC080
     FM241700 VRB03KT P6SM SCT060 BKN090
     FM242100 32005KT P6SM BKN100
     FM250300 VRB05KT P6SM BKN120=



000
FTUS46 KPDT 240900 AAC
TAFDLS
TAF AMD
KDLS 240908Z 2409/2506 00000KT 6SM BR SCT035 BKN060 BKN150
      TEMPO 2409/2413 4SM BR BKN035 BKN060 BKN150
     FM241400 VRB03KT P6SM SCT018 BKN040 OVC080
     FM241600 VRB03KT P6SM SCT060 BKN090
     FM242100 32005KT P6SM BKN100
     FM250300 VRB05KT P6SM BKN120=



000
FTUS46 KPDT 240800 AAB
TAFDLS
TAF AMD
KDLS 240806Z 2408/2506 VRB04KT 6SM BR SCT018 BKN035 BKN150
      TEMPO 2408/2412 BKN018 BKN035 BKN150
     FM241400 VRB03KT P6SM SCT018 BKN040 OVC080
     FM241600 VRB03KT P6SM SCT060 BKN090
     FM242100 32005KT P6SM BKN100
     FM250300 VRB05KT P6SM BKN120=



000
FTUS46 KPDT 240700 AAC
TAFPDT
TAF AMD
KPDT 240759Z 2408/2506 VRB03KT 6SM BR BKN050 OVC080
     FM241200 VRB04KT 6SM BR SCT003 OVC050
     FM241500 VRB03KT 6SM BR VCSH BKN050 OVC070
     FM241800 24008KT P6SM SCT050 BKN100
     FM250300 15006KT P6SM SCT060 BKN120=



000
FTUS46 KPDT 240600 AAA
TAFYKM
TAF AMD
KYKM 240602Z 2406/2506 VRB04KT P6SM VCSH OVC009
     FM241200 27005KT P6SM BKN009 OVC050
     FM242000 VRB05KT P6SM SCT040 BKN050 OVC070
     FM250300 26003KT P6SM BKN080 BKN120=



000
FTUS46 KPDT 240600 AAB
TAFPDT
TAF AMD
KPDT 240601Z 2406/2506 VRB03KT 5SM BR VCSH BKN050 OVC080
     FM241200 VRB04KT 6SM BR SCT003 OVC050
     FM242000 24008KT P6SM SCT050 BKN100
     FM250300 15006KT P6SM SCT060 BKN120=



000
FTUS46 KPDT 240600 AAA
TAFDLS
TAF AMD
KDLS 240600Z 2406/2506 VRB05KT P6SM VCSH FEW020 SCT060 OVC120
     FM241000 VRB03KT P6SM SCT015 BKN040 OVC080
     FM241600 VRB03KT P6SM SCT060 BKN090
     FM242100 32005KT P6SM BKN100
     FM250300 VRB05KT P6SM BKN120=



    US Dept of Commerce
    National Oceanic and Atmospheric Administration
    National Weather Service
    1325 East West Highway
    Silver Spring, MD 20910
    Page Author: NWS Internet Services Team
Disclaimer
Information Quality
Credits
Glossary
Privacy Policy
Freedom of Information Act (FOIA)
About Us
Career Opportunities